createdAt,value
2023-04-20T00:01:53.890Z,8.83
2023-04-20T00:03:56.158Z,9.23
2023-04-20T00:06:01.520Z,9.77
2023-04-20T00:08:03.709Z,10.60
2023-04-20T00:10:07.112Z,9.10
2023-04-20T00:12:09.139Z,8.07
2023-04-20T00:14:11.157Z,10.23
2023-04-20T00:16:13.271Z,9.33
2023-04-20T00:18:16.186Z,9.67
2023-04-20T00:20:18.500Z,9.63
2023-04-20T00:22:20.485Z,8.23
2023-04-20T00:24:23.118Z,9.20
2023-04-20T00:26:25.526Z,8.73
2023-04-20T00:28:29.924Z,9.43
2023-04-20T00:30:31.933Z,9.00
2023-04-20T00:32:34.025Z,8.23
2023-04-20T00:34:36.088Z,8.80
2023-04-20T00:36:38.198Z,8.93
2023-04-20T00:38:40.657Z,9.67
2023-04-20T00:40:49.012Z,9.90
2023-04-20T00:42:51.342Z,9.47
2023-04-20T00:44:53.395Z,8.50
2023-04-20T00:46:57.405Z,9.77
2023-04-20T00:49:01.071Z,8.90
2023-04-20T00:51:03.460Z,8.83
2023-04-20T00:53:06.558Z,9.30
2023-04-20T00:55:09.147Z,8.37
2023-04-20T00:57:19.240Z,10.00
2023-04-20T00:59:22.058Z,9.90
2023-04-20T01:01:24.590Z,9.70
2023-04-20T01:03:27.172Z,10.57
2023-04-20T01:05:29.501Z,9.20
2023-04-20T01:07:31.519Z,9.80
2023-04-20T01:09:33.556Z,9.03
2023-04-20T01:11:35.884Z,10.03
2023-04-20T01:13:38.577Z,10.17
2023-04-20T01:15:40.726Z,10.83
2023-04-20T01:17:43.949Z,10.30
2023-04-20T01:19:46.512Z,10.47
2023-04-20T01:21:48.792Z,10.20
2023-04-20T01:23:51.602Z,10.20
2023-04-20T01:25:53.660Z,10.27
2023-04-20T01:27:56.605Z,10.67
2023-04-20T01:29:58.597Z,11.07
2023-04-20T01:32:00.681Z,10.80
2023-04-20T01:34:02.723Z,11.63
2023-04-20T01:36:06.406Z,10.77
2023-04-20T01:38:08.406Z,10.63
2023-04-20T01:40:11.742Z,11.40
2023-04-20T01:42:13.810Z,11.63
2023-04-20T01:44:15.878Z,12.40
2023-04-20T01:46:18.044Z,12.23
2023-04-20T01:48:22.270Z,11.00
2023-04-20T01:50:24.315Z,12.40
2023-04-20T01:52:27.083Z,12.30
2023-04-20T01:54:29.439Z,11.70
2023-04-20T01:56:31.360Z,12.50
2023-04-20T01:58:33.994Z,13.10
2023-04-20T02:00:36.064Z,11.47
2023-04-20T02:02:38.167Z,11.90
2023-04-20T02:04:40.322Z,12.40
2023-04-20T02:06:42.356Z,13.97
2023-04-20T02:08:44.750Z,13.10
2023-04-20T02:10:46.834Z,12.73
2023-04-20T02:12:49.777Z,13.90
2023-04-20T02:14:52.079Z,12.13
2023-04-20T02:16:56.782Z,12.67
2023-04-20T02:18:58.883Z,14.30
2023-04-20T02:21:01.307Z,13.43
2023-04-20T02:23:03.589Z,13.90
2023-04-20T02:25:06.659Z,13.50
2023-04-20T02:27:08.671Z,14.17
2023-04-20T02:29:10.846Z,12.10
2023-04-20T02:31:12.981Z,13.50
2023-04-20T02:33:15.223Z,14.20
2023-04-20T02:35:17.216Z,13.90
2023-04-20T02:37:19.231Z,14.13
2023-04-20T02:39:21.373Z,13.20
2023-04-20T02:41:23.507Z,13.50
2023-04-20T02:43:25.692Z,12.80
2023-04-20T02:45:28.045Z,12.70
2023-04-20T02:47:30.380Z,14.27
2023-04-20T02:49:32.450Z,14.00
2023-04-20T02:51:34.944Z,13.97
2023-04-20T02:53:37.125Z,14.60
2023-04-20T02:55:54.773Z,13.43
2023-04-20T02:58:14.104Z,14.47
2023-04-20T03:00:34.792Z,15.23
2023-04-20T03:02:41.737Z,14.57
2023-04-20T03:04:44.196Z,16.03
2023-04-20T03:06:53.843Z,14.80
2023-04-20T03:09:01.605Z,13.33
2023-04-20T03:11:21.448Z,13.80
2023-04-20T03:13:23.503Z,15.70
2023-04-20T03:15:29.511Z,13.60
2023-04-20T03:17:45.345Z,14.00
2023-04-20T03:19:47.464Z,15.20
2023-04-20T03:21:49.510Z,15.10
2023-04-20T03:23:51.794Z,14.40
2023-04-20T03:25:54.292Z,14.83
2023-04-20T03:28:14.909Z,14.17
2023-04-20T03:30:16.999Z,13.13
2023-04-20T03:32:22.418Z,13.10
2023-04-20T03:34:24.854Z,12.63
2023-04-20T03:36:28.488Z,12.90
2023-04-20T03:38:31.909Z,13.07
2023-04-20T03:40:34.063Z,13.20
2023-04-20T03:42:37.313Z,12.97
2023-04-20T03:44:40.227Z,12.57
2023-04-20T03:46:43.844Z,12.20
2023-04-20T03:48:45.894Z,11.07
2023-04-20T03:50:48.268Z,12.53
2023-04-20T03:52:50.385Z,11.57
2023-04-20T03:54:52.321Z,11.07
2023-04-20T03:56:55.155Z,11.57
2023-04-20T03:58:57.372Z,11.50
2023-04-20T04:01:03.197Z,11.00
2023-04-20T04:03:06.407Z,11.27
2023-04-20T04:05:08.923Z,10.30
2023-04-20T04:07:11.275Z,10.10
2023-04-20T04:09:15.789Z,10.57
2023-04-20T04:11:17.969Z,10.43
2023-04-20T04:13:20.972Z,10.33
2023-04-20T04:15:23.038Z,9.30
2023-04-20T04:17:34.404Z,8.77
2023-04-20T04:19:36.466Z,8.40
2023-04-20T04:21:39.296Z,8.00
2023-04-20T04:23:42.559Z,9.37
2023-04-20T04:26:07.394Z,8.40
2023-04-20T04:28:12.005Z,8.67
2023-04-20T04:30:21.441Z,8.57
2023-04-20T04:32:24.583Z,8.40
2023-04-20T04:34:29.952Z,7.97
2023-04-20T04:36:32.267Z,8.17
2023-04-20T04:38:34.658Z,8.40
2023-04-20T04:40:38.120Z,8.30
2023-04-20T04:42:41.806Z,8.33
2023-04-20T04:44:45.005Z,8.20
2023-04-20T04:46:51.653Z,8.27
2023-04-20T04:48:53.642Z,8.10
2023-04-20T04:50:55.685Z,8.53
2023-04-20T04:52:57.733Z,9.43
2023-04-20T04:54:59.824Z,8.73
2023-04-20T04:57:02.201Z,8.70
2023-04-20T04:59:04.195Z,9.33
2023-04-20T05:01:06.437Z,9.37
2023-04-20T05:03:08.647Z,8.60
2023-04-20T05:05:10.982Z,7.87
2023-04-20T05:07:14.185Z,8.60
2023-04-20T05:09:16.561Z,8.53
2023-04-20T05:11:18.755Z,8.77
2023-04-20T05:13:20.764Z,9.03
2023-04-20T05:15:22.890Z,10.30
2023-04-20T05:17:25.029Z,8.07
2023-04-20T05:19:27.060Z,10.60
2023-04-20T05:21:29.100Z,9.50
2023-04-20T05:23:31.112Z,10.27
2023-04-20T05:25:33.151Z,8.60
2023-04-20T05:27:35.174Z,8.70
2023-04-20T05:29:38.310Z,9.80
2023-04-20T05:31:40.495Z,9.07
2023-04-20T05:33:43.338Z,8.20
2023-04-20T05:35:45.533Z,8.47
2023-04-20T05:37:47.886Z,7.80
2023-04-20T05:39:49.986Z,7.53
2023-04-20T05:41:52.213Z,7.67
2023-04-20T05:43:54.808Z,7.80
2023-04-20T05:45:56.853Z,8.17
2023-04-20T05:47:59.126Z,8.40
2023-04-20T05:50:01.127Z,8.37
2023-04-20T05:52:03.416Z,7.20
2023-04-20T05:54:05.614Z,8.30
2023-04-20T05:56:08.097Z,8.53
2023-04-20T05:58:10.296Z,7.30
2023-04-20T06:00:14.205Z,9.50
2023-04-20T06:02:16.309Z,8.00
2023-04-20T06:04:18.866Z,8.10
2023-04-20T06:06:20.985Z,8.50
2023-04-20T06:08:23.014Z,8.37
2023-04-20T06:10:25.055Z,8.20
2023-04-20T06:12:27.014Z,8.00
2023-04-20T06:14:29.000Z,9.30
2023-04-20T06:16:31.194Z,8.33
2023-04-20T06:18:33.249Z,10.33
2023-04-20T06:20:35.312Z,11.07
2023-04-20T06:22:42.832Z,10.23
2023-04-20T06:24:44.957Z,9.37
2023-04-20T06:26:47.020Z,8.90
2023-04-20T06:28:49.103Z,9.23
2023-04-20T06:30:51.276Z,9.90
2023-04-20T06:32:53.326Z,10.30
2023-04-20T06:34:55.526Z,9.77
2023-04-20T06:36:57.532Z,9.90
2023-04-20T06:38:59.733Z,8.80
2023-04-20T06:41:04.656Z,8.63
2023-04-20T06:43:06.637Z,8.70
2023-04-20T06:45:09.060Z,8.47
2023-04-20T06:47:11.091Z,8.40
2023-04-20T06:49:13.120Z,8.40
2023-04-20T06:51:15.086Z,8.03
2023-04-20T06:53:17.423Z,7.27
2023-04-20T06:55:19.534Z,7.20
2023-04-20T06:57:21.909Z,7.50
2023-04-20T06:59:24.006Z,6.97
2023-04-20T07:01:26.058Z,7.10
2023-04-20T07:03:28.131Z,6.63
2023-04-20T07:05:30.286Z,7.27
2023-04-20T07:07:32.267Z,7.57
2023-04-20T07:09:34.296Z,7.10
2023-04-20T07:11:36.392Z,6.70
2023-04-20T07:13:38.537Z,7.57
2023-04-20T07:15:40.729Z,7.50
2023-04-20T07:17:42.747Z,6.97
2023-04-20T07:19:44.779Z,8.30
2023-04-20T07:21:46.783Z,7.60
2023-04-20T07:23:49.053Z,7.70
2023-04-20T07:25:50.995Z,7.40
2023-04-20T07:27:52.989Z,8.63
2023-04-20T07:29:54.946Z,9.23
2023-04-20T07:31:57.079Z,8.40
2023-04-20T07:33:59.219Z,7.83
2023-04-20T07:36:01.777Z,8.20
2023-04-20T07:38:03.741Z,9.27
2023-04-20T07:40:07.055Z,9.57
2023-04-20T07:42:09.535Z,9.57
2023-04-20T07:44:13.715Z,8.70
2023-04-20T07:46:22.957Z,8.73
2023-04-20T07:48:25.077Z,10.40
2023-04-20T07:50:27.166Z,9.93
2023-04-20T07:52:29.185Z,9.07
2023-04-20T07:54:32.320Z,9.00
2023-04-20T07:56:34.358Z,10.27
2023-04-20T07:58:38.592Z,10.63
2023-04-20T08:00:40.649Z,11.20
2023-04-20T08:02:42.898Z,10.07
2023-04-20T08:04:46.602Z,10.20
2023-04-20T08:07:04.099Z,11.37
2023-04-20T08:09:06.119Z,10.60
2023-04-20T08:11:08.235Z,11.50
2023-04-20T08:13:10.480Z,11.60
2023-04-20T08:15:12.561Z,16.07
2023-04-20T08:17:14.618Z,14.87
2023-04-20T08:19:16.724Z,14.60
2023-04-20T08:21:18.883Z,11.27
2023-04-20T08:23:21.012Z,10.40
2023-04-20T08:25:24.283Z,11.07
2023-04-20T08:27:29.860Z,10.93
2023-04-20T08:29:31.982Z,12.27
2023-04-20T08:31:34.210Z,12.20
2023-04-20T08:33:36.436Z,11.20
2023-04-20T08:35:38.517Z,9.27
2023-04-20T08:37:41.948Z,10.37
2023-04-20T08:39:44.057Z,11.67
2023-04-20T08:41:46.871Z,10.50
2023-04-20T08:43:50.178Z,9.10
2023-04-20T08:45:52.991Z,9.60
2023-04-20T08:47:56.658Z,9.70
2023-04-20T08:49:59.792Z,10.20
2023-04-20T08:52:01.819Z,10.10
2023-04-20T08:54:07.069Z,11.57
2023-04-20T08:56:09.147Z,10.00
2023-04-20T08:58:11.169Z,10.60
2023-04-20T09:00:14.574Z,12.00
2023-04-20T09:02:16.842Z,10.60
2023-04-20T09:04:21.563Z,11.23
2023-04-20T09:06:24.034Z,11.20
2023-04-20T09:08:36.707Z,10.93
2023-04-20T09:10:42.767Z,10.70
2023-04-20T09:12:45.172Z,10.47
2023-04-20T09:14:48.255Z,10.83
2023-04-20T09:16:52.042Z,10.07
2023-04-20T09:18:56.178Z,10.07
2023-04-20T09:21:07.830Z,9.03
2023-04-20T09:23:21.487Z,10.40
2023-04-20T09:25:28.830Z,9.57
2023-04-20T09:27:31.232Z,11.63
2023-04-20T09:29:38.361Z,10.93
2023-04-20T09:31:40.777Z,10.83
2023-04-20T09:33:42.810Z,10.10
2023-04-20T09:35:45.734Z,10.67
2023-04-20T09:37:48.467Z,10.03
2023-04-20T09:39:50.711Z,10.40
2023-04-20T09:41:52.834Z,10.30
2023-04-20T09:43:55.035Z,9.37
2023-04-20T09:45:57.700Z,10.50
2023-04-20T09:48:00.200Z,10.80
2023-04-20T09:50:19.523Z,10.47
2023-04-20T09:52:26.817Z,9.83
2023-04-20T09:54:29.088Z,10.53
2023-04-20T09:56:31.697Z,10.90
2023-04-20T09:58:35.065Z,10.40
2023-04-20T10:00:37.222Z,10.60
2023-04-20T10:02:40.346Z,10.97
2023-04-20T10:04:59.417Z,10.83
2023-04-20T10:07:06.146Z,10.07
2023-04-20T10:09:08.894Z,10.00
2023-04-20T10:11:11.265Z,9.83
2023-04-20T10:13:15.823Z,10.50
2023-04-20T10:15:18.716Z,8.93
2023-04-20T10:17:30.737Z,9.90
2023-04-20T10:19:40.920Z,10.20
2023-04-20T10:21:47.685Z,9.20
2023-04-20T10:23:50.848Z,10.90
2023-04-20T10:26:01.177Z,9.67
2023-04-20T10:28:08.380Z,10.27
2023-04-20T10:30:11.201Z,10.37
2023-04-20T10:32:27.482Z,9.70
2023-04-20T10:34:31.279Z,8.60
2023-04-20T10:36:37.010Z,8.60
2023-04-20T10:38:39.267Z,9.67
2023-04-20T10:40:41.544Z,9.53
2023-04-20T10:42:44.811Z,9.27
2023-04-20T10:44:50.865Z,9.67
2023-04-20T10:46:53.720Z,8.97
2023-04-20T10:49:03.878Z,8.40
2023-04-20T10:51:10.486Z,9.10
2023-04-20T10:53:23.027Z,9.50
2023-04-20T10:55:26.445Z,8.73
2023-04-20T10:57:28.672Z,9.10
2023-04-20T10:59:30.808Z,8.10
2023-04-20T11:01:33.308Z,9.10
2023-04-20T11:03:35.762Z,8.90
2023-04-20T11:05:38.122Z,9.67
2023-04-20T11:07:56.128Z,9.60
2023-04-20T11:09:58.395Z,9.60
2023-04-20T11:12:12.713Z,9.73
2023-04-20T11:14:14.904Z,10.90
2023-04-20T11:16:18.600Z,11.73
2023-04-20T11:18:21.742Z,11.10
2023-04-20T11:20:23.933Z,10.70
2023-04-20T11:22:26.103Z,10.80
2023-04-20T11:24:30.726Z,11.80
2023-04-20T11:26:40.747Z,12.13
2023-04-20T11:28:56.218Z,12.73
2023-04-20T11:30:59.587Z,12.90
2023-04-20T11:33:01.843Z,11.87
2023-04-20T11:35:11.124Z,13.97
2023-04-20T11:37:13.869Z,14.70
2023-04-20T11:39:29.744Z,14.50
2023-04-20T11:41:32.097Z,14.40
2023-04-20T11:43:35.849Z,13.23
2023-04-20T11:45:39.175Z,13.77
2023-04-20T11:47:41.509Z,13.50
2023-04-20T11:49:43.769Z,13.33
2023-04-20T11:51:48.991Z,12.90
2023-04-20T11:53:51.232Z,11.87
2023-04-20T11:55:53.419Z,11.17
2023-04-20T11:57:55.683Z,8.90
2023-04-20T11:59:57.869Z,9.10
2023-04-20T12:02:04.302Z,10.23
2023-04-20T12:04:07.191Z,10.87
2023-04-20T12:06:09.623Z,11.17
2023-04-20T12:08:11.837Z,11.80
2023-04-20T12:10:14.000Z,9.90
2023-04-20T12:12:16.197Z,11.43
2023-04-20T12:14:18.633Z,10.23
2023-04-20T12:16:21.377Z,10.50
2023-04-20T12:18:23.669Z,11.13
2023-04-20T12:20:26.028Z,11.90
2023-04-20T12:22:28.229Z,11.93
2023-04-20T12:24:30.414Z,13.40
2023-04-20T12:26:38.434Z,12.53
2023-04-20T12:28:45.166Z,12.10
2023-04-20T12:30:47.566Z,13.30
2023-04-20T12:32:49.723Z,13.90
2023-04-20T12:34:51.901Z,12.70
2023-04-20T12:36:54.117Z,13.87
2023-04-20T12:38:56.658Z,13.43
2023-04-20T12:40:58.928Z,12.70
2023-04-20T12:43:01.074Z,12.63
2023-04-20T12:45:03.651Z,14.40
2023-04-20T12:47:06.470Z,12.23
2023-04-20T12:49:08.773Z,13.63
2023-04-20T12:51:11.054Z,12.30
2023-04-20T12:53:13.231Z,14.33
2023-04-20T12:55:15.409Z,11.90
2023-04-20T12:57:17.648Z,11.90
2023-04-20T12:59:19.755Z,12.10
2023-04-20T13:01:22.060Z,12.43
2023-04-20T13:03:25.069Z,11.80
2023-04-20T13:05:27.685Z,10.37
2023-04-20T13:07:30.708Z,11.10
2023-04-20T13:09:33.995Z,10.90
2023-04-20T13:11:36.242Z,10.33
2023-04-20T13:13:38.460Z,10.60
2023-04-20T13:15:40.926Z,9.20
2023-04-20T13:17:43.177Z,9.57
2023-04-20T13:19:49.098Z,9.20
2023-04-20T13:21:51.692Z,8.90
2023-04-20T13:23:54.884Z,10.03
2023-04-20T13:26:01.465Z,9.07
2023-04-20T13:28:03.830Z,9.93
2023-04-20T13:30:07.821Z,10.07
2023-04-20T13:32:10.690Z,9.63
2023-04-20T13:34:12.891Z,10.23
2023-04-20T13:36:15.078Z,11.23
2023-04-20T13:38:17.676Z,11.13
2023-04-20T13:40:19.991Z,12.40
2023-04-20T13:42:22.197Z,12.23
2023-04-20T13:44:24.332Z,12.67
2023-04-20T13:46:26.623Z,13.50
2023-04-20T13:48:28.836Z,12.40
2023-04-20T13:50:31.126Z,13.70
2023-04-20T13:52:33.526Z,12.50
2023-04-20T13:54:35.729Z,13.23
2023-04-20T13:56:39.542Z,13.63
2023-04-20T13:58:41.650Z,14.03
2023-04-20T14:00:43.823Z,13.73
2023-04-20T14:02:46.824Z,14.20
2023-04-20T14:04:49.057Z,14.50
2023-04-20T14:06:52.251Z,13.70
2023-04-20T14:08:54.673Z,14.60
2023-04-20T14:10:57.048Z,12.73
2023-04-20T14:13:00.728Z,14.07
2023-04-20T14:15:03.025Z,14.47
2023-04-20T14:17:05.261Z,13.90
2023-04-20T14:19:07.390Z,13.80
2023-04-20T14:21:09.563Z,12.93
2023-04-20T14:23:11.943Z,12.90
2023-04-20T14:25:14.243Z,12.90
2023-04-20T14:27:16.484Z,13.97
2023-04-20T14:29:18.682Z,14.50
2023-04-20T14:31:20.889Z,14.40
2023-04-20T14:33:23.146Z,14.43
2023-04-20T14:35:26.910Z,14.40
2023-04-20T14:37:29.156Z,14.40
2023-04-20T14:39:31.386Z,15.47
2023-04-20T14:41:34.130Z,14.43
2023-04-20T14:43:36.662Z,16.03
2023-04-20T14:45:41.558Z,15.10
2023-04-20T14:47:44.146Z,16.90
2023-04-20T14:49:46.380Z,16.00
2023-04-20T14:51:50.370Z,16.67
2023-04-20T14:53:52.544Z,17.13
2023-04-20T14:55:55.147Z,16.53
2023-04-20T14:57:57.781Z,16.47
2023-04-20T14:59:59.934Z,17.10
2023-04-20T15:02:03.510Z,15.77
2023-04-20T15:04:06.215Z,17.27
2023-04-20T15:06:08.692Z,16.30
2023-04-20T15:08:11.004Z,17.50
2023-04-20T15:10:13.221Z,18.47
2023-04-20T15:12:15.838Z,18.00
2023-04-20T15:14:18.337Z,18.20
2023-04-20T15:16:20.874Z,18.53
2023-04-20T15:18:23.076Z,17.87
2023-04-20T15:20:25.388Z,18.80
2023-04-20T15:22:27.610Z,17.23
2023-04-20T15:24:29.841Z,18.57
2023-04-20T15:26:32.091Z,19.73
2023-04-20T15:28:34.237Z,19.50
2023-04-20T15:30:36.474Z,21.27
2023-04-20T15:32:38.718Z,19.57
2023-04-20T15:34:40.991Z,22.60
2023-04-20T15:36:43.666Z,20.27
2023-04-20T15:38:46.130Z,19.07
2023-04-20T15:40:48.493Z,20.40
2023-04-20T15:42:51.589Z,20.80
2023-04-20T15:44:53.692Z,20.47
2023-04-20T15:46:57.775Z,20.53
2023-04-20T15:48:59.991Z,21.63
2023-04-20T15:51:03.183Z,21.03
2023-04-20T15:53:05.416Z,20.27
2023-04-20T15:55:10.271Z,21.07
2023-04-20T15:57:12.434Z,22.13
2023-04-20T15:59:14.574Z,22.03
2023-04-20T16:01:20.618Z,22.90
2023-04-20T16:03:23.029Z,21.90
2023-04-20T16:05:26.860Z,19.43
2023-04-20T16:07:29.030Z,20.37
2023-04-20T16:09:31.190Z,19.90
2023-04-20T16:11:34.999Z,19.90
2023-04-20T16:13:37.256Z,17.80
2023-04-20T16:15:39.709Z,20.70
2023-04-20T16:17:42.000Z,18.97
2023-04-20T16:19:44.265Z,19.20
2023-04-20T16:21:46.519Z,17.93
2023-04-20T16:23:53.465Z,18.13
2023-04-20T16:25:55.955Z,17.93
2023-04-20T16:27:58.109Z,17.97
2023-04-20T16:30:00.409Z,20.87
2023-04-20T16:32:02.590Z,18.03
2023-04-20T16:34:04.815Z,18.30
2023-04-20T16:36:07.202Z,18.53
2023-04-20T16:38:10.759Z,18.93
2023-04-20T16:40:13.082Z,19.10
2023-04-20T16:42:15.331Z,18.37
2023-04-20T16:44:17.767Z,19.40
2023-04-20T16:46:22.359Z,17.93
2023-04-20T16:48:24.640Z,17.10
2023-04-20T16:50:26.863Z,19.67
2023-04-20T16:52:29.306Z,18.40
2023-04-20T16:54:31.501Z,17.60
2023-04-20T16:56:33.667Z,17.93
2023-04-20T16:58:35.806Z,19.83
2023-04-20T17:00:38.042Z,19.60
2023-04-20T17:02:40.536Z,19.47
2023-04-20T17:04:42.756Z,18.10
2023-04-20T17:06:46.640Z,18.83
2023-04-20T17:08:50.290Z,19.37
2023-04-20T17:10:52.481Z,18.93
2023-04-20T17:12:57.059Z,19.27
2023-04-20T17:14:59.337Z,18.53
2023-04-20T17:17:01.570Z,18.13
2023-04-20T17:19:03.874Z,18.60
2023-04-20T17:21:06.104Z,19.23
2023-04-20T17:23:08.337Z,18.03
2023-04-20T17:25:10.561Z,18.53
2023-04-20T17:27:12.826Z,19.30
2023-04-20T17:29:15.925Z,17.63
2023-04-20T17:31:18.151Z,18.57
2023-04-20T17:33:20.685Z,17.07
2023-04-20T17:35:23.339Z,18.20
2023-04-20T17:37:25.932Z,18.30
2023-04-20T17:39:28.205Z,19.47
2023-04-20T17:41:30.481Z,18.07
2023-04-20T17:43:32.782Z,18.30
2023-04-20T17:45:36.973Z,17.30
2023-04-20T17:47:39.250Z,18.07
2023-04-20T17:49:41.520Z,19.20
2023-04-20T17:51:43.642Z,17.40
2023-04-20T17:53:45.848Z,17.30
2023-04-20T17:55:48.049Z,18.33
2023-04-20T17:57:50.276Z,20.50
2023-04-20T17:59:52.461Z,18.67
2023-04-20T18:01:54.870Z,17.60
2023-04-20T18:03:57.437Z,19.03
2023-04-20T18:05:59.795Z,19.83
2023-04-20T18:08:02.006Z,18.80
2023-04-20T18:10:05.113Z,22.73
2023-04-20T18:12:08.682Z,21.00
2023-04-20T18:14:10.811Z,24.50
2023-04-20T18:16:13.127Z,25.10
2023-04-20T18:18:16.980Z,26.03
2023-04-20T18:20:19.278Z,26.53
2023-04-20T18:22:21.617Z,27.20
2023-04-20T18:24:23.862Z,26.30
2023-04-20T18:26:26.190Z,26.70
2023-04-20T18:28:28.410Z,27.20
2023-04-20T18:30:30.623Z,26.63
2023-04-20T18:32:33.112Z,25.77
2023-04-20T18:34:35.453Z,23.67
2023-04-20T18:36:37.656Z,25.50
2023-04-20T18:38:39.910Z,25.10
2023-04-20T18:40:42.089Z,25.73
2023-04-20T18:42:44.278Z,24.03
2023-04-20T18:44:46.481Z,24.80
2023-04-20T18:46:48.755Z,23.00
2023-04-20T18:48:51.165Z,24.00
2023-04-20T18:50:53.425Z,24.77
2023-04-20T18:52:55.563Z,23.70
2023-04-20T18:54:57.720Z,22.20
2023-04-20T18:56:59.913Z,23.30
2023-04-20T18:59:03.290Z,23.10
2023-04-20T19:01:05.538Z,22.67
2023-04-20T19:03:08.015Z,23.00
2023-04-20T19:05:10.473Z,22.13
2023-04-20T19:07:12.769Z,21.67
2023-04-20T19:09:15.050Z,21.00
2023-04-20T19:11:17.337Z,21.73
2023-04-20T19:13:19.538Z,22.37
2023-04-20T19:15:27.678Z,22.20
2023-04-20T19:17:30.056Z,19.50
2023-04-20T19:19:32.287Z,21.17
2023-04-20T19:21:34.521Z,21.17
2023-04-20T19:23:36.707Z,21.37
2023-04-20T19:25:38.939Z,22.40
2023-04-20T19:27:41.209Z,18.67
2023-04-20T19:29:44.606Z,21.03
2023-04-20T19:31:46.878Z,19.90
2023-04-20T19:33:49.110Z,20.27
2023-04-20T19:35:51.291Z,20.70
2023-04-20T19:37:53.419Z,19.60
2023-04-20T19:39:55.725Z,20.97
2023-04-20T19:41:58.462Z,19.30
2023-04-20T19:44:00.970Z,20.87
2023-04-20T19:46:03.956Z,21.00
2023-04-20T19:48:06.456Z,21.70
2023-04-20T19:50:09.205Z,19.70
2023-04-20T19:52:11.414Z,20.90
2023-04-20T19:54:16.616Z,20.47
2023-04-20T19:56:19.285Z,20.37
2023-04-20T19:58:21.704Z,19.70
2023-04-20T20:00:23.870Z,20.20
2023-04-20T20:02:26.289Z,20.60
2023-04-20T20:04:28.793Z,19.93
2023-04-20T20:06:32.517Z,19.47
2023-04-20T20:08:34.944Z,19.97
2023-04-20T20:10:37.218Z,19.53
2023-04-20T20:12:39.611Z,18.67
2023-04-20T20:14:41.793Z,19.60
2023-04-20T20:16:44.309Z,19.77
2023-04-20T20:18:48.314Z,19.37
2023-04-20T20:20:51.339Z,19.00
2023-04-20T20:22:53.524Z,19.40
2023-04-20T20:24:57.249Z,18.93
2023-04-20T20:26:59.435Z,20.50
2023-04-20T20:29:01.602Z,20.43
2023-04-20T20:31:03.862Z,20.27
2023-04-20T20:33:06.181Z,18.17
2023-04-20T20:35:13.032Z,18.27
2023-04-20T20:37:16.501Z,19.70
2023-04-20T20:39:18.938Z,19.93
2023-04-20T20:41:21.704Z,19.10
2023-04-20T20:43:25.300Z,19.00
2023-04-20T20:45:27.847Z,18.97
2023-04-20T20:47:31.170Z,19.97
2023-04-20T20:49:33.810Z,19.23
2023-04-20T20:51:36.139Z,19.00
2023-04-20T20:53:38.250Z,20.10
2023-04-20T20:55:43.527Z,18.73
2023-04-20T20:57:52.855Z,19.30
2023-04-20T20:59:55.613Z,19.50
2023-04-20T21:01:57.933Z,20.13
2023-04-20T21:04:00.439Z,19.07
2023-04-20T21:06:02.812Z,19.63
2023-04-20T21:08:05.086Z,18.33
2023-04-20T21:10:07.716Z,19.63
2023-04-20T21:12:09.966Z,18.60
2023-04-20T21:14:12.121Z,19.20
2023-04-20T21:16:14.426Z,18.33
2023-04-20T21:18:16.613Z,19.67
2023-04-20T21:20:18.884Z,18.80
2023-04-20T21:22:22.582Z,17.50
2023-04-20T21:24:25.067Z,18.97
2023-04-20T21:26:28.439Z,17.80
2023-04-20T21:28:30.605Z,18.00
2023-04-20T21:30:33.026Z,17.40
2023-04-20T21:32:35.268Z,18.70
2023-04-20T21:34:37.423Z,18.43
2023-04-20T21:36:48.989Z,18.53
2023-04-20T21:38:51.188Z,20.00
2023-04-20T21:40:53.398Z,18.10
2023-04-20T21:42:55.581Z,16.40
2023-04-20T21:44:57.723Z,18.60
2023-04-20T21:47:02.504Z,18.50
2023-04-20T21:49:05.005Z,20.57
2023-04-20T21:51:07.196Z,19.63
2023-04-20T21:53:09.336Z,21.53
2023-04-20T21:55:11.603Z,22.87
2023-04-20T21:57:13.928Z,23.43
2023-04-20T21:59:16.148Z,23.80
2023-04-20T22:01:18.416Z,24.10
2023-04-20T22:03:20.891Z,25.77
2023-04-20T22:05:23.426Z,24.80
2023-04-20T22:07:27.593Z,24.23
2023-04-20T22:09:30.217Z,25.50
2023-04-20T22:11:36.439Z,23.80
2023-04-20T22:13:38.868Z,23.47
2023-04-20T22:15:41.062Z,23.87
2023-04-20T22:17:46.634Z,22.20
2023-04-20T22:19:49.402Z,21.93
2023-04-20T22:21:51.594Z,21.83
2023-04-20T22:23:54.003Z,19.07
2023-04-20T22:25:56.253Z,21.03
2023-04-20T22:27:58.411Z,20.43
2023-04-20T22:30:00.910Z,22.83
2023-04-20T22:32:03.064Z,20.87
2023-04-20T22:34:05.055Z,23.37
2023-04-20T22:36:07.761Z,22.50
2023-04-20T22:38:09.747Z,22.70
2023-04-20T22:40:13.015Z,22.37
2023-04-20T22:42:15.229Z,21.00
2023-04-20T22:44:17.362Z,20.20
2023-04-20T22:46:19.387Z,21.10
2023-04-20T22:48:21.649Z,18.67
2023-04-20T22:50:23.703Z,21.40
2023-04-20T22:52:25.830Z,20.90
2023-04-20T22:54:27.902Z,18.70
2023-04-20T22:56:29.943Z,19.90
2023-04-20T22:58:32.063Z,17.83
2023-04-20T23:00:34.213Z,18.63
2023-04-20T23:02:37.594Z,16.10
2023-04-20T23:04:40.188Z,15.47
2023-04-20T23:06:45.403Z,16.43
2023-04-20T23:08:47.912Z,15.77
2023-04-20T23:10:50.844Z,15.87
2023-04-20T23:12:55.002Z,15.10
2023-04-20T23:15:00.524Z,13.87
2023-04-20T23:17:04.018Z,12.70
2023-04-20T23:19:06.020Z,14.57
2023-04-20T23:21:08.006Z,13.10
2023-04-20T23:23:10.825Z,13.40
2023-04-20T23:25:12.874Z,13.80
2023-04-20T23:27:15.123Z,12.10
2023-04-20T23:29:17.403Z,12.40
2023-04-20T23:31:20.537Z,12.20
2023-04-20T23:33:22.767Z,12.67
2023-04-20T23:35:24.879Z,11.67
2023-04-20T23:37:26.850Z,11.40
2023-04-20T23:39:28.913Z,12.67
2023-04-20T23:41:30.891Z,10.77
2023-04-20T23:43:33.931Z,11.20
2023-04-20T23:45:35.949Z,11.10
2023-04-20T23:47:38.129Z,10.90
2023-04-20T23:49:40.189Z,11.07
2023-04-20T23:51:42.349Z,10.00
2023-04-20T23:53:44.531Z,11.07
2023-04-20T23:55:51.745Z,10.30
2023-04-20T23:57:53.763Z,10.40
2023-04-20T23:59:55.754Z,9.50
